createdAt,value
2022-10-02T00:00:30.515Z,53.61
2022-10-02T00:01:30.565Z,46.60
2022-10-02T00:02:30.515Z,54.22
2022-10-02T00:03:30.635Z,49.68
2022-10-02T00:04:30.572Z,58.23
2022-10-02T00:05:30.478Z,50.62
2022-10-02T00:06:30.466Z,53.23
2022-10-02T00:07:30.445Z,61.56
2022-10-02T00:08:31.458Z,60.71
2022-10-02T00:09:30.483Z,53.17
2022-10-02T00:10:30.428Z,41.69
2022-10-02T00:11:30.430Z,49.76
2022-10-02T00:12:30.421Z,52.30
2022-10-02T00:13:30.409Z,64.73
2022-10-02T00:14:30.428Z,60.82
2022-10-02T00:15:30.396Z,47.63
2022-10-02T00:16:30.439Z,55.31
2022-10-02T00:17:30.373Z,47.40
2022-10-02T00:18:30.373Z,44.37
2022-10-02T00:19:30.393Z,65.75
2022-10-02T00:20:30.359Z,43.86
2022-10-02T00:21:30.349Z,55.81
2022-10-02T00:22:30.348Z,43.28
2022-10-02T00:23:30.330Z,46.71
2022-10-02T00:24:30.362Z,44.74
2022-10-02T00:25:30.309Z,53.54
2022-10-02T00:26:30.385Z,50.60
2022-10-02T00:27:30.294Z,46.74
2022-10-02T00:28:30.351Z,52.31
2022-10-02T00:29:30.307Z,44.32
2022-10-02T00:30:30.268Z,57.19
2022-10-02T00:31:30.326Z,60.92
2022-10-02T00:32:30.251Z,58.15
2022-10-02T00:33:30.249Z,45.85
2022-10-02T00:34:30.238Z,56.71
2022-10-02T00:35:30.253Z,60.06
2022-10-02T00:36:30.222Z,57.04
2022-10-02T00:37:30.212Z,45.89
2022-10-02T00:38:30.201Z,47.09
2022-10-02T00:39:30.196Z,52.22
2022-10-02T00:40:30.228Z,50.47
2022-10-02T00:41:30.181Z,59.64
2022-10-02T00:42:30.173Z,52.59
2022-10-02T00:43:30.167Z,44.85
2022-10-02T00:44:30.162Z,50.30
2022-10-02T00:45:30.189Z,54.42
2022-10-02T00:46:30.143Z,38.71
2022-10-02T00:47:30.127Z,38.28
2022-10-02T00:48:30.119Z,41.92
2022-10-02T00:49:30.114Z,56.33
2022-10-02T00:50:30.138Z,60.64
2022-10-02T00:51:30.096Z,50.50
2022-10-02T00:52:30.090Z,42.55
2022-10-02T00:53:30.115Z,58.45
2022-10-02T00:54:30.071Z,54.32
2022-10-02T00:55:30.101Z,56.69
2022-10-02T00:56:30.056Z,59.19
2022-10-02T00:57:30.049Z,53.78
2022-10-02T00:58:30.044Z,50.74
2022-10-02T00:59:30.035Z,53.96
2022-10-02T01:00:30.053Z,48.55
2022-10-02T01:01:30.016Z,62.12
2022-10-02T01:02:30.093Z,61.41
2022-10-02T01:03:30.008Z,53.12
2022-10-02T01:04:29.997Z,48.31
2022-10-02T01:05:29.992Z,51.30
2022-10-02T01:06:30.052Z,39.19
2022-10-02T01:07:30.011Z,49.76
2022-10-02T01:08:29.966Z,63.32
2022-10-02T01:09:29.963Z,46.61
2022-10-02T01:10:29.950Z,58.64
2022-10-02T01:11:29.976Z,61.29
2022-10-02T01:12:29.935Z,53.61
2022-10-02T01:13:29.933Z,57.11
2022-10-02T01:14:29.919Z,42.93
2022-10-02T01:15:30.662Z,51.23
2022-10-02T01:16:29.975Z,51.06
2022-10-02T01:17:29.886Z,60.62
2022-10-02T01:18:29.880Z,46.47
2022-10-02T01:19:29.939Z,53.10
2022-10-02T01:20:29.903Z,48.37
2022-10-02T01:21:29.889Z,44.73
2022-10-02T01:22:29.846Z,52.68
2022-10-02T01:23:29.852Z,38.86
2022-10-02T01:24:29.838Z,43.82
2022-10-02T01:25:29.820Z,55.98
2022-10-02T01:26:29.845Z,62.66
2022-10-02T01:27:29.806Z,51.94
2022-10-02T01:28:29.878Z,66.71
2022-10-02T01:29:29.788Z,57.48
2022-10-02T01:30:29.812Z,51.75
2022-10-02T01:31:29.814Z,52.10
2022-10-02T01:32:29.826Z,53.34
2022-10-02T01:33:29.761Z,46.92
2022-10-02T01:34:29.744Z,38.74
2022-10-02T01:35:29.742Z,43.44
2022-10-02T01:36:29.761Z,52.92
2022-10-02T01:37:29.726Z,49.83
2022-10-02T01:38:29.723Z,43.12
2022-10-02T01:39:29.713Z,50.79
2022-10-02T01:40:29.697Z,55.12
2022-10-02T01:41:29.723Z,65.67
2022-10-02T01:42:29.701Z,54.50
2022-10-02T01:43:30.696Z,43.43
2022-10-02T01:44:29.672Z,39.74
2022-10-02T01:45:29.743Z,44.00
2022-10-02T01:46:29.695Z,66.07
2022-10-02T01:47:29.639Z,54.58
2022-10-02T01:48:29.645Z,51.12
2022-10-02T01:49:29.628Z,43.32
2022-10-02T01:50:29.615Z,50.22
2022-10-02T01:51:29.603Z,68.50
2022-10-02T01:52:29.633Z,57.79
2022-10-02T01:53:29.614Z,44.81
2022-10-02T01:54:29.586Z,38.87
2022-10-02T01:55:29.569Z,43.87
2022-10-02T01:56:29.605Z,57.14
2022-10-02T01:57:29.560Z,47.79
2022-10-02T01:58:29.557Z,57.96
2022-10-02T01:59:29.547Z,62.99
2022-10-02T02:00:29.535Z,40.01
2022-10-02T02:01:29.600Z,38.24
2022-10-02T02:02:29.612Z,38.51
2022-10-02T02:03:29.511Z,38.67
2022-10-02T02:04:29.501Z,49.47
2022-10-02T02:05:29.489Z,41.78
2022-10-02T02:06:29.515Z,55.42
2022-10-02T02:07:29.483Z,52.89
2022-10-02T02:08:29.467Z,47.66
2022-10-02T02:09:29.465Z,57.08
2022-10-02T02:10:29.466Z,45.36
2022-10-02T02:11:29.451Z,51.79
2022-10-02T02:12:29.498Z,38.97
2022-10-02T02:13:29.461Z,40.00
2022-10-02T02:14:29.418Z,48.63
2022-10-02T02:15:29.418Z,49.05
2022-10-02T02:16:29.488Z,44.60
2022-10-02T02:17:29.428Z,56.01
2022-10-02T02:18:29.391Z,39.75
2022-10-02T02:19:29.384Z,48.73
2022-10-02T02:20:29.368Z,63.68
2022-10-02T02:21:29.365Z,39.83
2022-10-02T02:22:29.377Z,38.58
2022-10-02T02:23:29.346Z,40.29
2022-10-02T02:24:29.336Z,56.66
2022-10-02T02:25:29.330Z,69.31
2022-10-02T02:26:29.327Z,52.83
2022-10-02T02:27:29.341Z,48.52
2022-10-02T02:28:29.376Z,41.13
2022-10-02T02:29:29.299Z,54.86
2022-10-02T02:30:29.291Z,50.71
2022-10-02T02:31:29.352Z,48.33
2022-10-02T02:32:29.311Z,56.05
2022-10-02T02:33:29.269Z,51.91
2022-10-02T02:34:29.271Z,43.71
2022-10-02T02:35:29.251Z,48.80
2022-10-02T02:36:29.250Z,60.41
2022-10-02T02:37:29.262Z,49.57
2022-10-02T02:38:29.228Z,40.54
2022-10-02T02:39:29.257Z,41.20
2022-10-02T02:40:29.218Z,61.64
2022-10-02T02:41:29.215Z,62.18
2022-10-02T02:42:29.250Z,57.02
2022-10-02T02:43:29.189Z,40.67
2022-10-02T02:44:29.201Z,47.43
2022-10-02T02:45:29.199Z,56.36
2022-10-02T02:46:29.160Z,40.57
2022-10-02T02:47:29.187Z,46.37
2022-10-02T02:48:29.147Z,49.62
2022-10-02T02:49:29.145Z,57.44
2022-10-02T02:50:29.142Z,51.87
2022-10-02T02:51:29.124Z,48.34
2022-10-02T02:52:29.143Z,61.51
2022-10-02T02:53:29.107Z,51.47
2022-10-02T02:54:29.137Z,51.19
2022-10-02T02:55:29.097Z,51.32
2022-10-02T02:56:29.086Z,51.17
2022-10-02T02:57:29.102Z,42.43
2022-10-02T02:58:29.067Z,43.89
2022-10-02T02:59:29.066Z,53.02
2022-10-02T03:00:29.053Z,55.51
2022-10-02T03:01:29.121Z,49.97
2022-10-02T03:02:29.083Z,65.85
2022-10-02T03:03:29.027Z,54.40
2022-10-02T03:04:29.010Z,47.06
2022-10-02T03:05:29.012Z,40.67
2022-10-02T03:06:29.006Z,38.00
2022-10-02T03:07:29.021Z,38.34
2022-10-02T03:08:28.983Z,39.20
2022-10-02T03:09:28.983Z,49.98
2022-10-02T03:10:28.977Z,61.27
2022-10-02T03:11:28.961Z,47.14
2022-10-02T03:12:28.991Z,55.21
2022-10-02T03:13:28.943Z,54.44
2022-10-02T03:14:28.934Z,53.64
2022-10-02T03:15:28.981Z,57.61
2022-10-02T03:16:28.921Z,47.12
2022-10-02T03:17:28.913Z,60.66
2022-10-02T03:18:28.934Z,63.71
2022-10-02T03:19:28.900Z,51.92
2022-10-02T03:20:28.893Z,57.91
2022-10-02T03:21:28.881Z,56.50
2022-10-02T03:22:28.888Z,55.50
2022-10-02T03:23:28.891Z,57.30
2022-10-02T03:24:28.851Z,52.32
2022-10-02T03:25:28.848Z,62.35
2022-10-02T03:26:28.845Z,62.57
2022-10-02T03:27:34.031Z,55.23
2022-10-02T03:28:53.967Z,51.94
2022-10-02T03:29:30.821Z,49.92
2022-10-02T03:30:28.806Z,52.71
2022-10-02T03:31:28.857Z,56.77
2022-10-02T03:32:28.790Z,52.45
2022-10-02T03:33:28.807Z,56.40
2022-10-02T03:34:28.774Z,42.93
2022-10-02T03:35:28.763Z,41.46
2022-10-02T03:36:28.761Z,55.79
2022-10-02T03:37:28.755Z,50.27
2022-10-02T03:38:28.780Z,58.73
2022-10-02T03:39:28.740Z,46.61
2022-10-02T03:40:28.724Z,46.12
2022-10-02T03:41:28.723Z,58.89
2022-10-02T03:42:28.706Z,53.03
2022-10-02T03:43:28.738Z,64.89
2022-10-02T03:44:28.706Z,54.20
2022-10-02T03:45:49.875Z,49.45
2022-10-02T03:46:30.782Z,65.82
2022-10-02T03:47:28.676Z,60.73
2022-10-02T03:48:28.692Z,54.21
2022-10-02T03:49:28.655Z,56.35
2022-10-02T03:50:30.796Z,58.04
2022-10-02T03:51:30.635Z,53.91
2022-10-02T03:52:28.627Z,57.53
2022-10-02T03:53:28.659Z,51.46
2022-10-02T03:54:28.626Z,36.32
2022-10-02T03:55:28.601Z,36.07
2022-10-02T03:56:28.597Z,43.40
2022-10-02T03:57:28.594Z,56.67
2022-10-02T03:58:28.616Z,51.33
2022-10-02T03:59:28.567Z,57.93
2022-10-02T04:00:28.567Z,64.56
2022-10-02T04:01:28.626Z,47.94
2022-10-02T04:02:28.578Z,46.97
2022-10-02T04:03:28.602Z,49.70
2022-10-02T04:04:28.541Z,55.98
2022-10-02T04:05:28.521Z,58.96
2022-10-02T04:06:28.508Z,50.33
2022-10-02T04:07:28.510Z,58.05
2022-10-02T04:08:28.504Z,45.46
2022-10-02T04:09:28.514Z,45.42
2022-10-02T04:10:28.479Z,59.88
2022-10-02T04:11:28.477Z,51.96
2022-10-02T04:12:28.464Z,55.79
2022-10-02T04:13:28.493Z,57.52
2022-10-02T04:14:28.453Z,55.60
2022-10-02T04:15:28.443Z,58.84
2022-10-02T04:16:28.472Z,60.94
2022-10-02T04:17:28.424Z,45.65
2022-10-02T04:18:28.413Z,45.06
2022-10-02T04:19:28.436Z,56.14
2022-10-02T04:20:28.396Z,51.47
2022-10-02T04:21:28.389Z,56.86
2022-10-02T04:22:28.381Z,50.94
2022-10-02T04:23:28.368Z,48.99
2022-10-02T04:24:28.394Z,42.52
2022-10-02T04:25:28.352Z,59.49
2022-10-02T04:26:28.347Z,46.00
2022-10-02T04:27:28.341Z,42.05
2022-10-02T04:28:28.409Z,59.02
2022-10-02T04:29:28.346Z,46.79
2022-10-02T04:30:28.303Z,56.99
2022-10-02T04:31:28.335Z,61.75
2022-10-02T04:32:28.298Z,56.92
2022-10-02T04:33:28.277Z,43.26
2022-10-02T04:34:28.310Z,59.15
2022-10-02T04:35:28.265Z,63.05
2022-10-02T04:36:28.251Z,54.40
2022-10-02T04:37:28.253Z,53.29
2022-10-02T04:38:28.254Z,54.89
2022-10-02T04:39:28.273Z,54.44
2022-10-02T04:40:28.225Z,51.29
2022-10-02T04:41:28.211Z,51.74
2022-10-02T04:42:28.207Z,54.69
2022-10-02T04:43:28.195Z,64.55
2022-10-02T04:44:28.217Z,54.45
2022-10-02T04:45:28.211Z,41.21
2022-10-02T04:46:28.177Z,39.43
2022-10-02T04:47:28.165Z,52.98
2022-10-02T04:48:28.152Z,53.07
2022-10-02T04:49:28.180Z,46.85
2022-10-02T04:50:28.145Z,50.91
2022-10-02T04:51:28.128Z,54.75
2022-10-02T04:52:28.124Z,64.27
2022-10-02T04:53:28.119Z,57.46
2022-10-02T04:54:28.143Z,42.18
2022-10-02T04:55:28.098Z,49.18
2022-10-02T04:56:28.091Z,47.58
2022-10-02T04:57:28.109Z,52.43
2022-10-02T04:58:28.072Z,62.60
2022-10-02T04:59:28.091Z,63.95
2022-10-02T05:00:28.060Z,50.22
2022-10-02T05:01:28.057Z,54.22
2022-10-02T05:02:28.078Z,42.67
2022-10-02T05:03:28.039Z,56.75
2022-10-02T05:04:28.046Z,49.71
2022-10-02T05:05:28.053Z,47.49
2022-10-02T05:06:28.014Z,49.91
2022-10-02T05:07:28.003Z,45.00
2022-10-02T05:08:27.997Z,52.29
2022-10-02T05:09:28.649Z,39.90
2022-10-02T05:10:29.006Z,50.25
2022-10-02T05:11:27.996Z,63.33
2022-10-02T05:12:27.970Z,39.74
2022-10-02T05:13:27.959Z,39.44
2022-10-02T05:14:27.951Z,53.68
2022-10-02T05:15:27.972Z,45.57
2022-10-02T05:16:28.024Z,38.60
2022-10-02T05:17:27.922Z,51.44
2022-10-02T05:18:27.939Z,54.97
2022-10-02T05:19:27.908Z,45.92
2022-10-02T05:20:27.928Z,46.20
2022-10-02T05:21:27.911Z,46.95
2022-10-02T05:22:27.885Z,44.41
2022-10-02T05:23:27.882Z,56.14
2022-10-02T05:24:27.872Z,51.54
2022-10-02T05:25:27.885Z,45.73
2022-10-02T05:26:27.848Z,49.65
2022-10-02T05:27:27.839Z,53.87
2022-10-02T05:28:27.881Z,56.09
2022-10-02T05:29:27.861Z,56.81
2022-10-02T05:30:27.849Z,53.10
2022-10-02T05:31:27.882Z,60.49
2022-10-02T05:32:27.800Z,47.28
2022-10-02T05:33:27.794Z,57.82
2022-10-02T05:34:27.793Z,55.08
2022-10-02T05:35:27.803Z,51.87
2022-10-02T05:36:27.776Z,45.64
2022-10-02T05:37:27.769Z,56.00
2022-10-02T05:38:27.745Z,61.80
2022-10-02T05:39:27.741Z,52.94
2022-10-02T05:40:27.794Z,51.41
2022-10-02T05:41:27.726Z,50.47
2022-10-02T05:42:27.749Z,53.61
2022-10-02T05:43:27.700Z,50.82
2022-10-02T05:44:27.690Z,41.13
2022-10-02T05:45:27.715Z,51.13
2022-10-02T05:46:27.866Z,56.24
2022-10-02T05:47:27.674Z,48.33
2022-10-02T05:48:27.649Z,61.19
2022-10-02T05:49:28.652Z,51.18
2022-10-02T05:50:27.684Z,56.30
2022-10-02T05:51:27.645Z,56.63
2022-10-02T05:52:27.628Z,45.88
2022-10-02T05:53:27.622Z,62.30
2022-10-02T05:54:27.604Z,55.51
2022-10-02T05:55:27.638Z,51.26
2022-10-02T05:56:27.590Z,54.64
2022-10-02T05:57:27.588Z,52.85
2022-10-02T05:58:27.580Z,56.14
2022-10-02T05:59:27.576Z,49.51
2022-10-02T06:00:27.637Z,53.63
2022-10-02T06:01:27.676Z,47.69
2022-10-02T06:02:27.598Z,59.89
2022-10-02T06:03:27.541Z,55.43
2022-10-02T06:04:27.525Z,62.25
2022-10-02T06:05:28.553Z,55.77
2022-10-02T06:06:27.514Z,52.77
2022-10-02T06:07:27.500Z,60.07
2022-10-02T06:08:27.511Z,59.11
2022-10-02T06:09:27.494Z,47.68
2022-10-02T06:10:27.560Z,47.18
2022-10-02T06:11:27.482Z,50.16
2022-10-02T06:12:27.463Z,50.29
2022-10-02T06:13:27.457Z,53.66
2022-10-02T06:14:27.468Z,50.38
2022-10-02T06:15:27.465Z,50.78
2022-10-02T06:16:27.626Z,45.63
2022-10-02T06:17:27.436Z,50.75
2022-10-02T06:18:27.413Z,50.45
2022-10-02T06:19:27.401Z,63.34
2022-10-02T06:20:27.422Z,62.67
2022-10-02T06:21:27.401Z,57.50
2022-10-02T06:22:27.394Z,57.92
2022-10-02T06:23:27.373Z,58.30
2022-10-02T06:24:27.363Z,52.02
2022-10-02T06:25:27.382Z,59.22
2022-10-02T06:26:28.368Z,48.04
2022-10-02T06:27:27.352Z,60.97
2022-10-02T06:28:27.377Z,50.47
2022-10-02T06:29:27.464Z,50.71
2022-10-02T06:30:27.344Z,62.56
2022-10-02T06:31:27.344Z,61.89
2022-10-02T06:32:27.295Z,58.41
2022-10-02T06:33:27.288Z,50.84
2022-10-02T06:34:27.276Z,48.10
2022-10-02T06:35:27.305Z,49.32
2022-10-02T06:36:27.262Z,56.53
2022-10-02T06:37:27.259Z,60.13
2022-10-02T06:38:27.245Z,59.77
2022-10-02T06:39:27.232Z,57.11
2022-10-02T06:40:27.291Z,55.25
2022-10-02T06:41:27.214Z,54.78
2022-10-02T06:42:27.203Z,59.73
2022-10-02T06:43:27.195Z,56.17
2022-10-02T06:44:28.192Z,57.43
2022-10-02T06:45:27.225Z,52.44
2022-10-02T06:46:27.231Z,59.60
2022-10-02T06:47:27.168Z,60.87
2022-10-02T06:48:27.194Z,44.09
2022-10-02T06:49:27.151Z,47.81
2022-10-02T06:50:27.171Z,59.25
2022-10-02T06:51:27.159Z,50.60
2022-10-02T06:52:27.128Z,61.29
2022-10-02T06:53:27.117Z,56.47
2022-10-02T06:54:27.141Z,59.76
2022-10-02T06:55:27.129Z,51.07
2022-10-02T06:56:27.128Z,49.69
2022-10-02T06:57:27.079Z,51.87
2022-10-02T06:58:27.076Z,51.91
2022-10-02T06:59:27.055Z,59.22
2022-10-02T07:00:28.086Z,63.09
2022-10-02T07:01:27.060Z,56.95
2022-10-02T07:02:28.082Z,58.91
2022-10-02T07:03:27.033Z,68.59
2022-10-02T07:04:27.029Z,61.79
2022-10-02T07:05:27.044Z,58.59
2022-10-02T07:06:28.021Z,63.30
2022-10-02T07:07:27.002Z,54.24
2022-10-02T07:08:27.022Z,61.01
2022-10-02T07:09:26.983Z,64.04
2022-10-02T07:10:27.011Z,60.37
2022-10-02T07:11:26.986Z,60.53
2022-10-02T07:12:27.001Z,57.38
2022-10-02T07:13:26.963Z,68.29
2022-10-02T07:14:26.960Z,64.43
2022-10-02T07:15:26.971Z,53.73
2022-10-02T07:16:26.966Z,60.66
2022-10-02T07:17:26.930Z,53.50
2022-10-02T07:18:26.940Z,63.62
2022-10-02T07:19:26.904Z,62.30
2022-10-02T07:20:26.936Z,65.36
2022-10-02T07:21:26.893Z,63.72
2022-10-02T07:22:43.812Z,66.07
2022-10-02T07:23:28.877Z,64.09
2022-10-02T07:24:26.902Z,62.67
2022-10-02T07:25:26.943Z,63.72
2022-10-02T07:26:26.943Z,63.85
2022-10-02T07:27:26.843Z,65.69
2022-10-02T07:28:26.868Z,66.19
2022-10-02T07:29:26.824Z,56.93
2022-10-02T07:30:26.835Z,64.53
2022-10-02T07:31:26.827Z,63.47
2022-10-02T07:32:26.802Z,59.76
2022-10-02T07:33:29.991Z,69.21
2022-10-02T07:34:27.779Z,60.05
2022-10-02T07:35:26.811Z,56.48
2022-10-02T07:36:26.768Z,66.81
2022-10-02T07:37:26.761Z,65.61
2022-10-02T07:38:26.749Z,68.66
2022-10-02T07:39:26.739Z,63.31
2022-10-02T07:40:26.764Z,60.03
2022-10-02T07:41:26.722Z,56.89
2022-10-02T07:42:26.716Z,66.71
2022-10-02T07:43:26.712Z,62.85
2022-10-02T07:44:26.717Z,59.62
2022-10-02T07:45:26.739Z,69.86
2022-10-02T07:46:26.707Z,62.87
2022-10-02T07:47:26.681Z,63.05
2022-10-02T07:48:26.658Z,61.42
2022-10-02T07:49:26.661Z,63.75
2022-10-02T07:50:26.681Z,67.26
2022-10-02T07:51:26.641Z,64.93
2022-10-02T07:52:26.629Z,60.03
2022-10-02T07:53:26.620Z,55.59
2022-10-02T07:54:26.614Z,64.45
2022-10-02T07:55:26.684Z,53.95
2022-10-02T07:56:26.656Z,63.31
2022-10-02T07:57:26.595Z,62.03
2022-10-02T07:58:26.586Z,65.83
2022-10-02T07:59:26.576Z,68.18
2022-10-02T08:00:26.600Z,65.13
2022-10-02T08:01:26.642Z,65.55
2022-10-02T08:02:26.576Z,63.05
2022-10-02T08:03:26.596Z,63.89
2022-10-02T08:04:26.539Z,58.88
2022-10-02T08:05:26.574Z,67.26
2022-10-02T08:06:26.527Z,69.00
2022-10-02T08:07:26.514Z,62.21
2022-10-02T08:08:26.501Z,64.75
2022-10-02T08:09:26.497Z,58.15
2022-10-02T08:10:26.489Z,59.31
2022-10-02T08:11:26.546Z,65.03
2022-10-02T08:12:26.474Z,60.59
2022-10-02T08:13:26.455Z,62.82
2022-10-02T08:14:26.462Z,64.84
2022-10-02T08:15:26.537Z,60.81
2022-10-02T08:16:26.531Z,65.56
2022-10-02T08:17:26.427Z,66.20
2022-10-02T08:18:35.059Z,64.02
2022-10-02T08:19:28.417Z,63.67
2022-10-02T08:20:29.278Z,66.33
2022-10-02T08:21:27.422Z,61.63
2022-10-02T08:22:26.399Z,65.94
2022-10-02T08:23:26.383Z,62.03
2022-10-02T08:24:26.374Z,65.15
2022-10-02T08:25:26.361Z,59.04
2022-10-02T08:26:26.400Z,66.37
2022-10-02T08:27:26.348Z,66.63
2022-10-02T08:28:26.375Z,61.45
2022-10-02T08:29:26.333Z,68.61
2022-10-02T08:30:26.328Z,55.87
2022-10-02T08:31:26.477Z,61.42
2022-10-02T08:32:26.312Z,56.81
2022-10-02T08:33:26.302Z,65.35
2022-10-02T08:34:26.296Z,55.14
2022-10-02T08:35:26.288Z,65.22
2022-10-02T08:36:26.314Z,60.24
2022-10-02T08:37:26.268Z,53.81
2022-10-02T08:38:26.256Z,63.51
2022-10-02T08:39:26.253Z,69.85
2022-10-02T08:40:26.244Z,61.70
2022-10-02T08:41:26.296Z,63.40
2022-10-02T08:42:26.226Z,64.80
2022-10-02T08:43:26.225Z,61.51
2022-10-02T08:44:26.214Z,65.49
2022-10-02T08:45:26.275Z,66.44
2022-10-02T08:46:26.227Z,65.02
2022-10-02T08:47:26.185Z,63.90
2022-10-02T08:48:26.170Z,67.15
2022-10-02T08:49:26.174Z,58.63
2022-10-02T08:50:26.161Z,61.06
2022-10-02T08:51:26.150Z,59.53
2022-10-02T08:52:26.173Z,64.85
2022-10-02T08:53:26.150Z,65.49
2022-10-02T08:54:26.118Z,67.98
2022-10-02T08:55:26.111Z,64.14
2022-10-02T08:56:26.115Z,64.55
2022-10-02T08:57:26.124Z,67.62
2022-10-02T08:58:26.089Z,57.42
2022-10-02T08:59:26.096Z,65.04
2022-10-02T09:00:26.083Z,56.69
2022-10-02T09:01:26.104Z,60.95
2022-10-02T09:02:26.116Z,69.11
2022-10-02T09:03:26.055Z,66.61
2022-10-02T09:04:26.038Z,58.10
2022-10-02T09:05:26.031Z,66.14
2022-10-02T09:06:26.020Z,66.10
2022-10-02T09:07:28.198Z,57.37
2022-10-02T09:08:27.014Z,64.41
2022-10-02T09:09:26.003Z,58.82
2022-10-02T09:10:26.001Z,58.47
2022-10-02T09:11:25.983Z,63.05
2022-10-02T09:12:26.011Z,66.24
2022-10-02T09:13:25.963Z,58.57
2022-10-02T09:14:25.960Z,57.31
2022-10-02T09:15:26.145Z,63.10
2022-10-02T09:16:26.088Z,60.84
2022-10-02T09:17:25.957Z,65.29
2022-10-02T09:18:25.919Z,64.97
2022-10-02T09:19:25.927Z,55.86
2022-10-02T09:20:25.908Z,65.41
2022-10-02T09:21:25.901Z,63.03
2022-10-02T09:22:25.936Z,59.75
2022-10-02T09:23:25.884Z,60.29
2022-10-02T09:24:25.889Z,64.07
2022-10-02T09:25:25.866Z,64.57
2022-10-02T09:26:25.855Z,66.63
2022-10-02T09:27:25.884Z,67.51
2022-10-02T09:28:25.922Z,62.96
2022-10-02T09:29:25.832Z,58.88
2022-10-02T09:30:25.834Z,63.69
2022-10-02T09:31:25.876Z,61.47
2022-10-02T09:32:25.826Z,58.46
2022-10-02T09:33:25.797Z,68.00
2022-10-02T09:34:25.812Z,55.95
2022-10-02T09:35:25.786Z,60.36
2022-10-02T09:36:25.778Z,66.37
2022-10-02T09:37:25.822Z,67.16
2022-10-02T09:38:25.755Z,65.56
2022-10-02T09:39:25.744Z,64.64
2022-10-02T09:40:25.737Z,71.29
2022-10-02T09:41:25.734Z,68.31
2022-10-02T09:42:25.763Z,63.07
2022-10-02T09:43:25.714Z,62.78
2022-10-02T09:44:25.705Z,63.18
2022-10-02T09:45:25.765Z,64.58
2022-10-02T09:46:25.684Z,72.53
2022-10-02T09:47:25.719Z,65.35
2022-10-02T09:48:25.670Z,64.61
2022-10-02T09:49:25.662Z,66.27
2022-10-02T09:50:25.661Z,66.39
2022-10-02T09:51:25.633Z,62.03
2022-10-02T09:52:25.658Z,67.86
2022-10-02T09:53:26.703Z,66.15
2022-10-02T09:54:25.620Z,62.86
2022-10-02T09:55:25.632Z,63.86
2022-10-02T09:56:25.696Z,56.85
2022-10-02T09:57:25.634Z,66.65
2022-10-02T09:58:25.578Z,64.09
2022-10-02T09:59:25.573Z,62.04
2022-10-02T10:00:25.588Z,68.48
2022-10-02T10:01:25.614Z,60.35
2022-10-02T10:02:25.991Z,66.17
2022-10-02T10:03:26.545Z,68.48
2022-10-02T10:04:33.870Z,65.64
2022-10-02T10:05:27.527Z,63.54
2022-10-02T10:06:25.523Z,67.30
2022-10-02T10:07:25.562Z,59.50
2022-10-02T10:08:25.509Z,62.75
2022-10-02T10:09:25.495Z,59.03
2022-10-02T10:10:25.487Z,68.54
2022-10-02T10:11:25.485Z,58.82
2022-10-02T10:12:25.502Z,60.63
2022-10-02T10:13:25.468Z,65.19
2022-10-02T10:14:25.461Z,69.48
2022-10-02T10:15:25.448Z,66.56
2022-10-02T10:16:25.478Z,59.69
2022-10-02T10:17:25.461Z,68.33
2022-10-02T10:18:25.423Z,67.09
2022-10-02T10:19:25.414Z,67.93
2022-10-02T10:20:25.413Z,67.69
2022-10-02T10:21:29.466Z,63.73
2022-10-02T10:22:26.409Z,67.07
2022-10-02T10:23:25.379Z,64.39
2022-10-02T10:24:25.372Z,66.47
2022-10-02T10:25:25.372Z,67.25
2022-10-02T10:26:25.347Z,56.45
2022-10-02T10:27:25.337Z,65.00
2022-10-02T10:28:25.419Z,67.31
2022-10-02T10:29:25.324Z,64.73
2022-10-02T10:30:25.326Z,68.72
2022-10-02T10:31:25.360Z,67.40
2022-10-02T10:32:25.301Z,66.56
2022-10-02T10:33:25.315Z,62.38
2022-10-02T10:34:25.279Z,65.58
2022-10-02T10:35:25.296Z,62.37
2022-10-02T10:36:25.269Z,67.42
2022-10-02T10:37:25.257Z,61.30
2022-10-02T10:38:25.281Z,67.73
2022-10-02T10:39:25.252Z,64.43
2022-10-02T10:40:25.238Z,62.07
2022-10-02T10:41:25.229Z,56.58
2022-10-02T10:42:25.221Z,67.21
2022-10-02T10:43:25.242Z,57.98
2022-10-02T10:44:25.201Z,64.52
2022-10-02T10:45:25.244Z,67.29
2022-10-02T10:46:25.187Z,65.72
2022-10-02T10:47:25.173Z,67.91
2022-10-02T10:48:25.194Z,68.15
2022-10-02T10:49:25.150Z,66.45
2022-10-02T10:50:25.148Z,62.78
2022-10-02T10:51:25.139Z,65.53
2022-10-02T10:52:25.132Z,64.84
2022-10-02T10:53:25.152Z,67.06
2022-10-02T10:54:25.125Z,62.23
2022-10-02T10:55:25.109Z,68.73
2022-10-02T10:56:25.099Z,60.04
2022-10-02T10:57:25.090Z,65.31
2022-10-02T10:58:25.112Z,65.54
2022-10-02T10:59:25.642Z,59.26
2022-10-02T11:00:26.060Z,63.76
2022-10-02T11:01:25.128Z,65.24
2022-10-02T11:02:25.114Z,65.49
2022-10-02T11:03:25.075Z,62.41
2022-10-02T11:04:25.035Z,62.95
2022-10-02T11:05:25.023Z,68.98
2022-10-02T11:06:25.018Z,65.78
2022-10-02T11:07:25.006Z,62.04
2022-10-02T11:08:24.998Z,60.48
2022-10-02T11:09:25.024Z,64.58
2022-10-02T11:10:24.989Z,65.03
2022-10-02T11:11:24.977Z,65.51
2022-10-02T11:12:24.968Z,67.96
2022-10-02T11:13:24.952Z,61.55
2022-10-02T11:14:24.989Z,68.66
2022-10-02T11:15:24.943Z,64.95
2022-10-02T11:16:24.971Z,68.41
2022-10-02T11:17:24.922Z,65.07
2022-10-02T11:18:24.916Z,60.55
2022-10-02T11:19:24.942Z,64.53
2022-10-02T11:20:24.910Z,65.99
2022-10-02T11:21:24.892Z,60.71
2022-10-02T11:22:24.893Z,62.88
2022-10-02T11:23:24.878Z,64.34
2022-10-02T11:24:24.902Z,59.05
2022-10-02T11:25:24.862Z,65.42
2022-10-02T11:26:24.967Z,60.92
2022-10-02T11:27:24.889Z,63.70
2022-10-02T11:28:24.879Z,65.05
2022-10-02T11:29:24.851Z,61.32
2022-10-02T11:30:24.837Z,68.73
2022-10-02T11:31:24.845Z,63.30
2022-10-02T11:32:24.815Z,65.08
2022-10-02T11:33:24.803Z,63.57
2022-10-02T11:34:24.825Z,67.93
2022-10-02T11:35:24.778Z,61.06
2022-10-02T11:36:24.784Z,62.34
2022-10-02T11:37:24.781Z,64.50
2022-10-02T11:38:24.754Z,68.53
2022-10-02T11:39:24.777Z,57.74
2022-10-02T11:40:24.744Z,66.16
2022-10-02T11:41:24.747Z,62.30
2022-10-02T11:42:24.731Z,65.53
2022-10-02T11:43:24.730Z,64.83
2022-10-02T11:44:24.749Z,65.60
2022-10-02T11:45:24.706Z,66.32
2022-10-02T11:46:24.697Z,66.25
2022-10-02T11:47:24.689Z,65.44
2022-10-02T11:48:24.677Z,67.66
2022-10-02T11:49:24.704Z,60.89
2022-10-02T11:50:24.666Z,60.94
2022-10-02T11:51:24.654Z,64.01
2022-10-02T11:52:24.645Z,61.32
2022-10-02T11:53:24.639Z,63.54
2022-10-02T11:54:24.655Z,68.23
2022-10-02T11:55:24.626Z,63.38
2022-10-02T11:56:24.617Z,62.29
2022-10-02T11:57:24.608Z,63.07
2022-10-02T11:58:24.599Z,64.72
2022-10-02T11:59:24.618Z,65.51
2022-10-02T12:00:24.578Z,61.88
2022-10-02T12:01:24.573Z,66.88
2022-10-02T12:02:24.718Z,58.68
2022-10-02T12:03:24.705Z,61.52
2022-10-02T12:04:24.569Z,62.81
2022-10-02T12:05:24.547Z,64.37
2022-10-02T12:06:24.531Z,59.66
2022-10-02T12:07:24.534Z,58.05
2022-10-02T12:08:24.578Z,61.03
2022-10-02T12:09:24.535Z,66.98
2022-10-02T12:10:24.496Z,66.98
2022-10-02T12:11:24.485Z,62.05
2022-10-02T12:12:27.704Z,62.14
2022-10-02T12:13:25.471Z,65.47
2022-10-02T12:14:24.489Z,63.45
2022-10-02T12:15:24.453Z,66.70
2022-10-02T12:16:24.495Z,66.60
2022-10-02T12:17:24.443Z,58.46
2022-10-02T12:18:24.431Z,60.25
2022-10-02T12:19:24.457Z,64.76
2022-10-02T12:20:24.415Z,67.44
2022-10-02T12:21:24.411Z,59.53
2022-10-02T12:22:24.394Z,64.94
2022-10-02T12:23:24.388Z,64.14
2022-10-02T12:24:24.418Z,61.02
2022-10-02T12:25:24.373Z,61.84
2022-10-02T12:26:24.364Z,65.48
2022-10-02T12:27:24.370Z,69.73
2022-10-02T12:28:24.450Z,68.48
2022-10-02T12:29:24.345Z,61.98
2022-10-02T12:30:24.365Z,70.46
2022-10-02T12:31:24.375Z,65.67
2022-10-02T12:32:24.325Z,62.37
2022-10-02T12:33:24.314Z,60.61
2022-10-02T12:34:24.306Z,58.96
2022-10-02T12:35:24.325Z,67.20
2022-10-02T12:36:24.281Z,63.26
2022-10-02T12:37:24.273Z,63.36
2022-10-02T12:38:24.273Z,63.42
2022-10-02T12:39:24.262Z,64.93
2022-10-02T12:40:24.286Z,67.80
2022-10-02T12:41:24.249Z,66.75
2022-10-02T12:42:24.232Z,61.24
2022-10-02T12:43:24.232Z,65.07
2022-10-02T12:44:24.225Z,64.29
2022-10-02T12:45:24.237Z,65.92
2022-10-02T12:46:24.205Z,61.19
2022-10-02T12:47:24.197Z,65.39
2022-10-02T12:48:24.191Z,61.20
2022-10-02T12:49:24.187Z,66.16
2022-10-02T12:50:24.203Z,65.53
2022-10-02T12:51:24.161Z,62.57
2022-10-02T12:52:24.168Z,67.28